createdAt,value
2022-10-22T00:01:01.870Z,93837.91
2022-10-22T00:03:29.421Z,93837.09
2022-10-22T00:05:56.961Z,93841.72
2022-10-22T00:08:24.536Z,93850.97
2022-10-22T00:10:52.753Z,93855.84
2022-10-22T00:13:20.436Z,93866.72
2022-10-22T00:15:49.620Z,93884.09
2022-10-22T00:18:17.361Z,93891.47
2022-10-22T00:20:44.904Z,93899.88
2022-10-22T00:23:12.550Z,93882.78
2022-10-22T00:25:40.097Z,93883.59
2022-10-22T00:28:07.649Z,93877.34
2022-10-22T00:30:35.221Z,93865.13
2022-10-22T00:33:04.109Z,93863.22
2022-10-22T00:35:31.661Z,93850.72
2022-10-22T00:37:59.184Z,93839.06
2022-10-22T00:40:26.710Z,93833.63
2022-10-22T00:42:54.389Z,93825.75
2022-10-22T00:45:24.824Z,93824.66
2022-10-22T00:47:55.357Z,93835.84
2022-10-22T00:50:25.346Z,93827.97
2022-10-22T00:52:52.892Z,93834.22
2022-10-22T00:55:20.610Z,93829.88
2022-10-22T00:57:48.434Z,93830.66
2022-10-22T01:00:16.714Z,93839.09
2022-10-22T01:02:44.281Z,93860.03
2022-10-22T01:05:12.004Z,93867.66
2022-10-22T01:07:42.912Z,93882.84
2022-10-22T01:10:13.952Z,93879.59
2022-10-22T01:12:44.797Z,93882.31
2022-10-22T01:15:17.404Z,93877.16
2022-10-22T01:17:49.116Z,93872.56
2022-10-22T01:20:24.657Z,93877.16
2022-10-22T01:22:59.621Z,93879.06
2022-10-22T01:25:31.448Z,93877.16
2022-10-22T01:28:04.848Z,93866.56
2022-10-22T01:30:33.776Z,93872.00
2022-10-22T01:33:02.736Z,93864.94
2022-10-22T01:38:08.566Z,93877.72
2022-10-22T01:40:36.337Z,93876.09
2022-10-22T01:43:05.352Z,93878.81
2022-10-22T01:45:35.269Z,93881.81
2022-10-22T01:48:08.933Z,93884.50
2022-10-22T01:50:45.585Z,93888.31
2022-10-22T01:53:22.595Z,93892.97
2022-10-22T01:55:57.054Z,93900.28
2022-10-22T01:58:31.045Z,93896.75
2022-10-22T02:01:01.655Z,93922.00
2022-10-22T02:03:30.568Z,93920.38
2022-10-22T02:05:59.767Z,93931.25
2022-10-22T02:08:29.178Z,93933.13
2022-10-22T02:10:56.725Z,93924.19
2022-10-22T02:13:25.630Z,93917.94
2022-10-22T02:15:53.805Z,93919.84
2022-10-22T02:18:23.938Z,93922.56
2022-10-22T02:20:51.676Z,93939.97
2022-10-22T02:23:19.257Z,93936.16
2022-10-22T02:25:48.849Z,93936.41
2022-10-22T02:28:18.533Z,93938.34
2022-10-22T02:30:48.106Z,93938.34
2022-10-22T02:33:17.488Z,93945.66
2022-10-22T02:35:46.417Z,93944.03
2022-10-22T02:38:13.978Z,93937.78
2022-10-22T02:40:41.545Z,93939.69
2022-10-22T02:43:09.133Z,93945.13
2022-10-22T02:45:36.905Z,93941.59
2022-10-22T02:48:04.813Z,93949.72
2022-10-22T02:50:32.386Z,93939.97
2022-10-22T02:53:01.297Z,93948.09
2022-10-22T02:55:28.965Z,93943.78
2022-10-22T02:57:56.496Z,93931.03
2022-10-22T03:00:24.049Z,93930.19
2022-10-22T03:02:51.569Z,93929.41
2022-10-22T03:05:19.297Z,93933.19
2022-10-22T03:07:46.916Z,93933.19
2022-10-22T03:10:15.846Z,93916.09
2022-10-22T03:12:43.391Z,93945.16
2022-10-22T03:15:11.544Z,93958.72
2022-10-22T03:17:39.495Z,93963.34
2022-10-22T03:20:08.340Z,93963.34
2022-10-22T03:22:36.465Z,93972.56
2022-10-22T03:25:07.463Z,93981.50
2022-10-22T03:27:36.396Z,93983.44
2022-10-22T03:30:06.693Z,93987.25
2022-10-22T03:32:34.284Z,93986.41
2022-10-22T03:35:01.881Z,93983.69
2022-10-22T03:37:30.168Z,93992.66
2022-10-22T03:39:57.704Z,93991.84
2022-10-22T03:42:25.254Z,93975.56
2022-10-22T03:44:54.173Z,93973.94
2022-10-22T03:47:24.313Z,93996.47
2022-10-22T03:49:51.896Z,93990.22
2022-10-22T03:52:19.409Z,93989.41
2022-10-22T03:54:46.956Z,93994.84
2022-10-22T03:57:14.494Z,93989.41
2022-10-22T03:59:42.861Z,93995.94
2022-10-22T04:02:12.053Z,93983.16
2022-10-22T04:04:39.700Z,93979.66
2022-10-22T04:07:07.882Z,93976.09
2022-10-22T04:09:35.840Z,93975.31
2022-10-22T04:12:05.419Z,93965.25
2022-10-22T04:14:33.117Z,93978.03
2022-10-22T04:17:00.664Z,93984.53
2022-10-22T04:19:29.632Z,93981.81
2022-10-22T04:21:58.807Z,93991.59
2022-10-22T04:24:26.364Z,93987.22
2022-10-22T04:26:54.785Z,93982.91
2022-10-22T04:29:22.365Z,93974.75
2022-10-22T04:31:49.915Z,93982.09
2022-10-22T04:34:17.456Z,93984.00
2022-10-22T04:36:46.375Z,93992.13
2022-10-22T04:39:13.921Z,93996.75
2022-10-22T04:41:41.691Z,93996.75
2022-10-22T04:44:12.337Z,94001.38
2022-10-22T04:46:43.646Z,93999.47
2022-10-22T04:49:11.191Z,94012.22
2022-10-22T04:51:38.757Z,94009.50
2022-10-22T04:54:08.145Z,94005.16
2022-10-22T04:56:35.714Z,94014.94
2022-10-22T04:59:04.803Z,94012.22
2022-10-22T05:01:35.736Z,94006.00
2022-10-22T05:04:06.804Z,94013.31
2022-10-22T05:06:35.356Z,94013.31
2022-10-22T05:09:04.313Z,94006.25
2022-10-22T05:11:34.249Z,94003.00
2022-10-22T05:14:02.476Z,93997.31
2022-10-22T05:16:30.197Z,94001.91
2022-10-22T05:18:58.808Z,93994.03
2022-10-22T05:21:26.541Z,93995.66
2022-10-22T05:23:54.780Z,93976.66
2022-10-22T05:26:23.541Z,93962.28
2022-10-22T05:28:52.521Z,93970.44
2022-10-22T05:31:20.558Z,93985.91
2022-10-22T05:33:48.287Z,93981.31
2022-10-22T05:36:16.611Z,93971.53
2022-10-22T05:38:44.166Z,93961.75
2022-10-22T05:41:12.660Z,93946.28
2022-10-22T05:43:40.243Z,93943.56
2022-10-22T05:46:10.100Z,93979.94
2022-10-22T05:48:37.782Z,93988.91
2022-10-22T05:51:05.671Z,93988.91
2022-10-22T05:53:33.461Z,93995.44
2022-10-22T05:56:02.464Z,93986.47
2022-10-22T05:58:30.046Z,93990.00
2022-10-22T06:01:02.248Z,93988.09
2022-10-22T06:03:31.795Z,93993.81
2022-10-22T06:06:01.230Z,93993.81
2022-10-22T06:08:29.062Z,93999.22
2022-10-22T06:10:56.593Z,93985.94
2022-10-22T06:13:24.208Z,93987.56
2022-10-22T06:15:53.345Z,93985.94
2022-10-22T06:18:20.957Z,93985.09
2022-10-22T06:20:49.844Z,93999.50
2022-10-22T06:23:17.393Z,94003.31
2022-10-22T06:25:44.945Z,94004.09
2022-10-22T06:28:12.505Z,94009.53
2022-10-22T06:30:42.992Z,94004.94
2022-10-22T06:33:13.425Z,94007.91
2022-10-22T06:35:40.973Z,94020.66
2022-10-22T06:38:09.901Z,94026.91
2022-10-22T06:40:37.486Z,94023.09
2022-10-22T06:43:06.043Z,94030.44
2022-10-22T06:45:33.622Z,94040.22
2022-10-22T06:48:01.221Z,94045.38
2022-10-22T06:50:28.817Z,94042.91
2022-10-22T06:52:56.976Z,94040.22
2022-10-22T06:55:25.898Z,94045.63
2022-10-22T06:57:53.444Z,94046.47
2022-10-22T07:00:21.451Z,94049.97
2022-10-22T07:02:56.359Z,94056.22
2022-10-22T07:05:26.736Z,94050.81
2022-10-22T07:07:54.364Z,94055.41
2022-10-22T07:10:21.949Z,94055.94
2022-10-22T07:12:51.010Z,94061.38
2022-10-22T07:15:18.724Z,94071.44
2022-10-22T07:17:46.287Z,94083.38
2022-10-22T07:20:14.396Z,94074.94
2022-10-22T07:22:42.148Z,94085.00
2022-10-22T07:25:10.567Z,94093.94
2022-10-22T07:27:38.264Z,94096.13
2022-10-22T07:30:09.194Z,94103.47
2022-10-22T07:32:37.023Z,94098.03
2022-10-22T07:35:05.537Z,94107.22
2022-10-22T07:37:33.085Z,94107.22
2022-10-22T07:40:03.760Z,94120.81
2022-10-22T07:42:31.878Z,94120.81
2022-10-22T07:44:59.508Z,94122.97
2022-10-22T07:47:28.412Z,94141.19
2022-10-22T07:49:55.969Z,94134.91
2022-10-22T07:52:23.588Z,94140.34
2022-10-22T07:54:51.194Z,94136.00
2022-10-22T07:57:18.753Z,94136.00
2022-10-22T07:59:46.959Z,94137.94
2022-10-22T08:02:14.916Z,94137.94
2022-10-22T08:04:43.820Z,94148.78
2022-10-22T08:07:11.365Z,94145.25
2022-10-22T08:09:38.885Z,94144.44
2022-10-22T08:12:07.328Z,94149.03
2022-10-22T08:14:34.897Z,94152.84
2022-10-22T08:17:02.435Z,94148.50
2022-10-22T08:19:32.346Z,94154.72
2022-10-22T08:22:01.252Z,94159.34
2022-10-22T08:24:28.877Z,94165.59
2022-10-22T08:26:56.701Z,94162.31
2022-10-22T08:29:24.411Z,94164.25
2022-10-22T08:31:52.077Z,94167.75
2022-10-22T08:34:19.654Z,94164.25
2022-10-22T08:36:47.487Z,94166.97
2022-10-22T08:39:16.501Z,94165.34
2022-10-22T08:41:47.233Z,94173.47
2022-10-22T08:44:29.224Z,94172.66
2022-10-22T08:47:04.043Z,94178.06
2022-10-22T08:49:36.112Z,94177.28
2022-10-22T08:52:06.116Z,94181.63
2022-10-22T08:54:40.417Z,94186.47
2022-10-22T08:57:17.951Z,94184.59
2022-10-22T08:59:47.344Z,94181.03
2022-10-22T09:02:34.599Z,94178.34
2022-10-22T09:05:10.014Z,94185.66
2022-10-22T09:07:44.013Z,94184.81
2022-10-22T09:10:14.091Z,94184.81
2022-10-22T09:12:41.669Z,94189.19
2022-10-22T09:15:13.933Z,94193.78
2022-10-22T09:17:46.305Z,94204.63
2022-10-22T09:20:16.188Z,94201.09
2022-10-22T09:22:45.982Z,94203.00
2022-10-22T09:25:21.088Z,94205.72
2022-10-22T09:27:48.761Z,94204.09
2022-10-22T09:30:17.359Z,94199.47
2022-10-22T09:32:44.996Z,94204.09
2022-10-22T09:35:12.828Z,94206.81
2022-10-22T09:37:48.610Z,94216.56
2022-10-22T09:40:16.577Z,94216.84
2022-10-22T09:42:46.443Z,94216.84
2022-10-22T09:45:18.568Z,94222.25
2022-10-22T09:48:01.091Z,94228.53
2022-10-22T09:50:31.017Z,94230.41
2022-10-22T09:53:02.702Z,94227.69
2022-10-22T09:55:30.409Z,94229.31
2022-10-22T09:58:00.584Z,94235.03
2022-10-22T10:00:28.492Z,94235.03
2022-10-22T10:02:57.206Z,94235.81
2022-10-22T10:05:29.900Z,94224.97
2022-10-22T10:07:58.043Z,94224.97
2022-10-22T10:10:31.666Z,94227.44
2022-10-22T10:13:04.096Z,94222.00
2022-10-22T10:15:36.194Z,94218.19
2022-10-22T10:18:08.558Z,94219.88
2022-10-22T10:20:40.888Z,94224.19
2022-10-22T10:23:11.345Z,94225.56
2022-10-22T10:25:47.437Z,94220.16
2022-10-22T10:28:26.682Z,94227.19
2022-10-22T10:30:58.085Z,94227.19
2022-10-22T10:33:31.823Z,94225.03
2022-10-22T10:36:03.020Z,94233.72
2022-10-22T10:38:38.486Z,94232.63
2022-10-22T10:41:14.046Z,94230.75
2022-10-22T10:43:47.908Z,94233.16
2022-10-22T10:46:18.387Z,94230.19
2022-10-22T10:48:50.835Z,94230.75
2022-10-22T10:51:34.490Z,94233.19
2022-10-22T10:54:09.191Z,94227.47
2022-10-22T10:56:40.113Z,94229.09
2022-10-22T10:59:18.928Z,94232.38
2022-10-22T11:02:11.208Z,94231.31
2022-10-22T11:05:12.358Z,94231.00
2022-10-22T11:07:41.485Z,94232.63
2022-10-22T11:10:11.383Z,94234.25
2022-10-22T11:12:40.785Z,94231.03
2022-10-22T11:15:13.379Z,94229.13
2022-10-22T11:17:41.718Z,94231.56
2022-10-22T11:20:15.633Z,94227.78
2022-10-22T11:23:06.739Z,94234.84
2022-10-22T11:25:34.295Z,94239.16
2022-10-22T11:28:09.075Z,94232.66
2022-10-22T11:30:38.117Z,94245.97
2022-10-22T11:33:07.560Z,94238.63
2022-10-22T11:35:35.664Z,94238.63
2022-10-22T11:38:04.109Z,94240.81
2022-10-22T11:40:33.829Z,94233.47
2022-10-22T11:43:05.394Z,94228.88
2022-10-22T11:45:35.186Z,94228.59
2022-10-22T11:48:08.840Z,94237.56
2022-10-22T11:50:50.610Z,94232.66
2022-10-22T11:53:20.299Z,94239.97
2022-10-22T11:55:48.808Z,94235.38
2022-10-22T11:58:33.657Z,94238.91
2022-10-22T12:01:33.835Z,94229.69
2022-10-22T12:04:20.328Z,94232.13
2022-10-22T12:06:56.113Z,94231.31
2022-10-22T12:09:25.977Z,94225.88
2022-10-22T12:11:53.510Z,94236.75
2022-10-22T12:14:26.298Z,94232.41
2022-10-22T12:16:57.000Z,94235.38
2022-10-22T12:19:28.023Z,94232.66
2022-10-22T12:21:58.218Z,94227.22
2022-10-22T12:24:26.759Z,94224.53
2022-10-22T12:26:54.297Z,94222.59
2022-10-22T12:29:23.617Z,94228.84
2022-10-22T12:31:51.199Z,94223.44
2022-10-22T12:34:19.410Z,94219.09
2022-10-22T12:36:51.561Z,94219.88
2022-10-22T12:39:20.755Z,94218.00
2022-10-22T12:41:48.357Z,94216.66
2022-10-22T12:44:17.081Z,94214.72
2022-10-22T12:46:45.324Z,94214.72
2022-10-22T12:49:15.877Z,94217.44
2022-10-22T12:51:43.549Z,94206.59
2022-10-22T12:54:19.588Z,94200.59
2022-10-22T12:56:47.600Z,94211.47
2022-10-22T12:59:17.583Z,94211.47
2022-10-22T13:01:45.183Z,94213.91
2022-10-22T13:04:33.878Z,94210.38
2022-10-22T13:07:06.702Z,94222.59
2022-10-22T13:09:40.023Z,94220.69
2022-10-22T13:12:08.468Z,94216.63
2022-10-22T13:14:37.433Z,94212.56
2022-10-22T13:17:12.764Z,94203.03
2022-10-22T13:19:45.791Z,94206.84
2022-10-22T13:22:28.767Z,94204.97
2022-10-22T13:24:59.566Z,94209.56
2022-10-22T13:27:28.410Z,94208.22
2022-10-22T13:29:56.443Z,94215.53
2022-10-22T13:32:29.469Z,94208.22
2022-10-22T13:34:58.317Z,94209.00
2022-10-22T13:37:26.175Z,94205.19
2022-10-22T13:39:53.902Z,94209.28
2022-10-22T13:42:22.802Z,94216.63
2022-10-22T13:44:50.600Z,94205.19
2022-10-22T13:47:26.177Z,94210.09
2022-10-22T13:52:30.704Z,94211.47
2022-10-22T13:54:58.284Z,94213.09
2022-10-22T13:57:27.168Z,94207.38
2022-10-22T13:59:54.737Z,94214.72
2022-10-22T14:02:24.569Z,94212.81
2022-10-22T14:04:52.511Z,94213.63
2022-10-22T14:07:20.087Z,94212.00
2022-10-22T14:09:47.642Z,94216.34
2022-10-22T14:12:16.437Z,94217.44
2022-10-22T14:14:45.415Z,94218.25
2022-10-22T14:17:15.694Z,94218.25
2022-10-22T14:19:44.421Z,94219.88
2022-10-22T14:22:14.853Z,94219.88
2022-10-22T14:24:42.434Z,94217.97
2022-10-22T14:27:11.950Z,94219.88
2022-10-22T14:29:39.595Z,94230.47
2022-10-22T14:32:13.171Z,94228.03
2022-10-22T14:34:41.418Z,94228.03
2022-10-22T14:37:14.732Z,94222.88
2022-10-22T14:39:42.447Z,94223.94
2022-10-22T14:42:11.280Z,94223.94
2022-10-22T14:44:38.819Z,94223.94
2022-10-22T14:47:06.408Z,94223.94
2022-10-22T14:49:35.344Z,94218.53
2022-10-22T14:52:02.878Z,94229.38
2022-10-22T14:54:30.869Z,94222.31
2022-10-22T14:56:58.406Z,94223.94
2022-10-22T14:59:26.049Z,94226.66
2022-10-22T15:01:53.601Z,94221.25
2022-10-22T15:04:21.182Z,94222.06
2022-10-22T15:06:50.120Z,94223.94
2022-10-22T15:09:17.686Z,94228.59
2022-10-22T15:11:45.256Z,94221.50
2022-10-22T15:14:12.803Z,94223.41
2022-10-22T15:16:40.441Z,94227.22
2022-10-22T15:19:08.013Z,94223.97
2022-10-22T15:21:35.596Z,94229.13
2022-10-22T15:24:05.068Z,94227.22
2022-10-22T15:26:32.674Z,94232.66
2022-10-22T15:29:00.237Z,94229.94
2022-10-22T15:31:48.234Z,94242.97
2022-10-22T15:34:19.839Z,94251.94
2022-10-22T15:36:47.455Z,94252.75
2022-10-22T15:39:16.341Z,94250.88
2022-10-22T15:41:43.884Z,94258.72
2022-10-22T15:44:14.245Z,94253.81
2022-10-22T15:46:41.806Z,94260.91
2022-10-22T15:49:09.453Z,94267.97
2022-10-22T15:51:37.024Z,94259.53
2022-10-22T15:54:09.269Z,94264.97
2022-10-22T15:56:39.029Z,94272.84
2022-10-22T15:59:06.653Z,94277.47
2022-10-22T16:01:35.201Z,94272.03
2022-10-22T16:04:03.409Z,94272.84
2022-10-22T16:06:32.038Z,94279.66
2022-10-22T16:09:00.205Z,94273.41
2022-10-22T16:11:27.949Z,94276.66
2022-10-22T16:13:57.188Z,94270.94
2022-10-22T16:16:24.767Z,94280.72
2022-10-22T16:18:52.306Z,94282.63
2022-10-22T16:21:20.063Z,94278.84
2022-10-22T16:23:47.624Z,94278.84
2022-10-22T16:26:15.757Z,94276.38
2022-10-22T16:28:43.685Z,94278.28
2022-10-22T16:31:13.315Z,94276.66
2022-10-22T16:33:46.484Z,94278.28
2022-10-22T16:36:17.793Z,94289.16
2022-10-22T16:38:45.388Z,94291.06
2022-10-22T16:41:14.133Z,94280.47
2022-10-22T16:43:41.928Z,94286.97
2022-10-22T16:46:09.781Z,94283.19
2022-10-22T16:48:40.471Z,94291.31
2022-10-22T16:51:08.753Z,94285.91
2022-10-22T16:53:36.386Z,94293.25
2022-10-22T16:56:03.985Z,94291.91
2022-10-22T16:58:31.745Z,94291.91
2022-10-22T17:00:59.399Z,94297.34
2022-10-22T17:03:28.358Z,94304.94
2022-10-22T17:06:00.364Z,94293.78
2022-10-22T17:08:27.924Z,94305.44
2022-10-22T17:10:55.486Z,94299.19
2022-10-22T17:13:23.029Z,94303.53
2022-10-22T17:15:50.644Z,94309.78
2022-10-22T17:18:18.363Z,94308.97
2022-10-22T17:20:45.921Z,94308.09
2022-10-22T17:23:14.861Z,94310.28
2022-10-22T17:25:43.089Z,94316.81
2022-10-22T17:28:10.723Z,94318.69
2022-10-22T17:30:40.521Z,94319.78
2022-10-22T17:33:08.228Z,94325.47
2022-10-22T17:35:35.916Z,94321.94
2022-10-22T17:38:03.475Z,94324.09
2022-10-22T17:40:32.434Z,94328.97
2022-10-22T17:43:00.050Z,94334.16
2022-10-22T17:45:27.704Z,94339.06
2022-10-22T17:47:57.135Z,94341.22
2022-10-22T17:50:24.682Z,94334.69
2022-10-22T17:52:52.250Z,94342.56
2022-10-22T17:55:19.796Z,94338.75
2022-10-22T17:57:48.752Z,94342.00
2022-10-22T18:02:50.221Z,94337.94
2022-10-22T18:05:17.949Z,94332.50
2022-10-22T18:07:45.553Z,94333.03
2022-10-22T18:10:13.162Z,94329.47
2022-10-22T18:12:40.891Z,94335.47
2022-10-22T18:15:11.160Z,94331.94
2022-10-22T18:17:39.701Z,94334.66
2022-10-22T18:20:08.592Z,94338.19
2022-10-22T18:22:36.656Z,94345.28
2022-10-22T18:25:04.433Z,94346.38
2022-10-22T18:27:32.078Z,94350.97
2022-10-22T18:29:59.679Z,94346.38
2022-10-22T18:32:28.650Z,94341.72
2022-10-22T18:34:56.209Z,94344.97
2022-10-22T18:37:23.722Z,94341.97
2022-10-22T18:39:51.343Z,94325.91
2022-10-22T18:42:18.892Z,94322.94
2022-10-22T18:44:46.478Z,94333.81
2022-10-22T18:47:14.046Z,94329.72
2022-10-22T18:49:43.156Z,94338.16
2022-10-22T18:52:10.669Z,94337.06
2022-10-22T18:54:38.417Z,94329.72
2022-10-22T18:57:05.973Z,94324.28
2022-10-22T18:59:33.525Z,94323.47
2022-10-22T19:02:01.234Z,94323.47
2022-10-22T19:04:33.192Z,94321.56
2022-10-22T19:07:02.313Z,94316.13
2022-10-22T19:09:29.939Z,94316.13
2022-10-22T19:11:57.556Z,94322.66
2022-10-22T19:14:25.098Z,94323.97
2022-10-22T19:16:52.684Z,94321.00
2022-10-22T19:19:21.245Z,94325.63
2022-10-22T19:21:48.861Z,94328.63
2022-10-22T19:24:18.467Z,94329.72
2022-10-22T19:26:46.134Z,94321.78
2022-10-22T19:29:13.697Z,94315.03
2022-10-22T19:31:41.632Z,94322.88
2022-10-22T19:34:09.175Z,94310.94
2022-10-22T19:36:36.715Z,94322.41
2022-10-22T19:39:04.575Z,94320.50
2022-10-22T19:41:33.611Z,94323.25
2022-10-22T19:44:01.180Z,94318.91
2022-10-22T19:46:29.573Z,94324.63
2022-10-22T19:48:57.326Z,94323.56
2022-10-22T19:51:26.072Z,94327.91
2022-10-22T19:53:58.057Z,94324.41
2022-10-22T19:56:25.624Z,94318.97
2022-10-22T19:58:54.502Z,94319.53
2022-10-22T20:01:22.190Z,94317.38
2022-10-22T20:03:49.841Z,94323.63
2022-10-22T20:06:18.017Z,94326.91
2022-10-22T20:08:45.858Z,94326.63
2022-10-22T20:11:17.637Z,94327.19
2022-10-22T20:13:48.014Z,94330.72
2022-10-22T20:16:22.625Z,94337.53
2022-10-22T20:18:50.262Z,94335.63
2022-10-22T20:21:19.144Z,94337.28
2022-10-22T20:23:47.021Z,94328.31
2022-10-22T20:26:14.623Z,94328.31
2022-10-22T20:28:42.149Z,94324.25
2022-10-22T20:31:10.751Z,94332.91
2022-10-22T20:33:39.751Z,94330.50
2022-10-22T20:36:08.593Z,94329.66
2022-10-22T20:41:05.587Z,94331.28
2022-10-22T20:43:33.259Z,94320.44
2022-10-22T20:46:01.019Z,94325.31
2022-10-22T20:48:31.149Z,94321.81
2022-10-22T20:51:00.257Z,94332.09
2022-10-22T20:53:27.803Z,94336.75
2022-10-22T20:55:57.985Z,94336.19
2022-10-22T20:58:26.950Z,94332.63
2022-10-22T21:00:55.019Z,94330.19
2022-10-22T21:03:22.938Z,94325.03
2022-10-22T21:05:50.565Z,94328.00
2022-10-22T21:08:19.475Z,94327.22
2022-10-22T21:10:48.864Z,94328.28
2022-10-22T21:13:19.057Z,94329.38
2022-10-22T21:15:46.590Z,94329.63
2022-10-22T21:18:14.157Z,94321.75
2022-10-22T21:20:41.768Z,94322.84
2022-10-22T21:23:09.397Z,94318.50
2022-10-22T21:25:40.857Z,94321.50
2022-10-22T21:28:10.937Z,94320.97
2022-10-22T21:30:45.489Z,94322.84
2022-10-22T21:33:13.045Z,94323.94
2022-10-22T21:35:40.568Z,94320.41
2022-10-22T21:38:08.206Z,94317.69
2022-10-22T21:40:38.241Z,94315.78
2022-10-22T21:43:05.790Z,94316.88
2022-10-22T21:48:06.670Z,94312.00
2022-10-22T21:50:34.220Z,94310.38
2022-10-22T21:53:01.766Z,94309.53
2022-10-22T21:55:30.417Z,94309.78
2022-10-22T21:57:59.286Z,94312.50
2022-10-22T22:00:26.860Z,94306.53
2022-10-22T22:02:54.401Z,94308.16
2022-10-22T22:05:22.399Z,94306.53
2022-10-22T22:07:49.947Z,94303.81
2022-10-22T22:10:17.701Z,94303.81
2022-10-22T22:12:45.325Z,94304.91
2022-10-22T22:15:14.533Z,94314.97
2022-10-22T22:17:42.086Z,94312.53
2022-10-22T22:20:10.925Z,94307.34
2022-10-22T22:22:38.611Z,94306.53
2022-10-22T22:25:06.613Z,94297.84
2022-10-22T22:27:34.157Z,94296.78
2022-10-22T22:30:01.699Z,94293.22
2022-10-22T22:32:30.633Z,94287.78
2022-10-22T22:34:58.142Z,94287.00
2022-10-22T22:37:27.327Z,94281.56
2022-10-22T22:39:55.014Z,94280.72
2022-10-22T22:42:22.521Z,94275.28
2022-10-22T22:44:50.077Z,94277.22
2022-10-22T22:47:17.616Z,94279.09
2022-10-22T22:49:46.549Z,94289.16
2022-10-22T22:52:14.144Z,94281.28
2022-10-22T22:54:41.723Z,94278.31
2022-10-22T22:57:09.297Z,94275.84
2022-10-22T22:59:36.813Z,94270.69
2022-10-22T23:02:04.336Z,94267.97
2022-10-22T23:04:31.962Z,94270.69
2022-10-22T23:07:00.828Z,94262.53
2022-10-22T23:09:28.386Z,94263.63
2022-10-22T23:11:55.984Z,94260.09
2022-10-22T23:14:23.538Z,94259.28
2022-10-22T23:16:51.991Z,94253.84
2022-10-22T23:19:21.421Z,94260.34
2022-10-22T23:21:49.776Z,94252.22
2022-10-22T23:24:19.379Z,94253.31
2022-10-22T23:26:48.019Z,94250.59
2022-10-22T23:29:16.952Z,94253.56
2022-10-22T23:31:44.593Z,94239.19
2022-10-22T23:34:12.742Z,94242.16
2022-10-22T23:36:40.480Z,94241.38
2022-10-22T23:39:08.586Z,94242.16
2022-10-22T23:41:37.545Z,94242.44
2022-10-22T23:44:05.280Z,94242.44
2022-10-22T23:46:33.330Z,94238.91
2022-10-22T23:49:00.897Z,94231.03
2022-10-22T23:51:28.494Z,94233.72
2022-10-22T23:53:56.702Z,94231.03
2022-10-22T23:56:24.232Z,94228.84
2022-10-22T23:58:53.321Z,94229.94
